createdAt,value
2022-09-13T00:00:44.215Z,54.83
2022-09-13T00:03:13.495Z,54.60
2022-09-13T00:05:42.486Z,54.43
2022-09-13T00:08:10.483Z,55.62
2022-09-13T00:10:39.134Z,55.92
2022-09-13T00:13:06.843Z,57.45
2022-09-13T00:15:41.213Z,57.24
2022-09-13T00:18:08.004Z,57.16
2022-09-13T00:20:35.075Z,56.73
2022-09-13T00:23:01.750Z,56.93
2022-09-13T00:25:28.433Z,56.82
2022-09-13T00:27:55.162Z,56.63
2022-09-13T00:30:21.831Z,56.76
2022-09-13T00:36:06.585Z,57.13
2022-09-13T00:38:36.269Z,57.24
2022-09-13T00:41:05.116Z,57.44
2022-09-13T00:43:47.800Z,57.92
2022-09-13T00:46:44.504Z,57.70
2022-09-13T00:49:19.190Z,57.22
2022-09-13T00:51:57.423Z,57.22
2022-09-13T00:54:27.339Z,56.94
2022-09-13T00:56:56.026Z,56.98
2022-09-13T00:59:36.271Z,56.83
2022-09-13T01:02:04.607Z,56.50
2022-09-13T01:04:33.132Z,56.52
2022-09-13T01:07:04.221Z,56.47
2022-09-13T01:09:33.222Z,56.55
2022-09-13T01:12:05.148Z,56.13
2022-09-13T01:14:32.756Z,56.07
2022-09-13T01:16:59.503Z,55.81
2022-09-13T01:19:26.477Z,55.66
2022-09-13T01:22:29.060Z,55.75
2022-09-13T01:25:01.547Z,55.69
2022-09-13T01:27:46.547Z,56.13
2022-09-13T01:30:19.329Z,56.00
2022-09-13T01:33:04.166Z,55.98
2022-09-13T01:35:46.155Z,55.94
2022-09-13T01:38:31.237Z,56.17
2022-09-13T01:41:25.086Z,56.36
2022-09-13T01:44:15.967Z,56.66
2022-09-13T01:47:20.481Z,56.69
2022-09-13T01:49:47.116Z,56.34
2022-09-13T01:52:34.372Z,56.74
2022-09-13T01:55:13.767Z,56.72
2022-09-13T01:57:40.359Z,56.87
2022-09-13T02:00:10.925Z,57.01
2022-09-13T02:02:51.443Z,56.95
2022-09-13T02:05:23.264Z,56.97
2022-09-13T02:07:58.281Z,56.87
2022-09-13T02:10:39.046Z,57.26
2022-09-13T02:13:08.605Z,57.16
2022-09-13T02:15:40.134Z,57.16
2022-09-13T02:18:16.012Z,57.35
2022-09-13T02:20:45.023Z,57.57
2022-09-13T02:23:22.420Z,57.63
2022-09-13T02:25:49.764Z,57.82
2022-09-13T02:28:21.462Z,57.76
2022-09-13T02:30:51.722Z,58.04
2022-09-13T02:33:29.420Z,58.26
2022-09-13T02:36:07.157Z,58.27
2022-09-13T02:38:37.675Z,57.98
2022-09-13T02:41:15.050Z,58.36
2022-09-13T02:43:45.399Z,58.21
2022-09-13T02:46:18.567Z,58.15
2022-09-13T02:49:04.780Z,58.44
2022-09-13T02:51:56.537Z,58.70
2022-09-13T02:54:32.222Z,58.48
2022-09-13T02:57:06.254Z,58.64
2022-09-13T02:59:35.277Z,58.69
2022-09-13T03:02:17.126Z,58.78
2022-09-13T03:04:46.934Z,58.87
2022-09-13T03:07:14.675Z,59.09
2022-09-13T03:09:48.628Z,59.25
2022-09-13T03:12:55.946Z,59.77
2022-09-13T03:15:42.265Z,59.45
2022-09-13T03:18:34.916Z,59.70
2022-09-13T03:21:18.644Z,59.64
2022-09-13T03:24:10.794Z,59.93
2022-09-13T03:26:46.626Z,59.99
2022-09-13T03:29:33.622Z,60.43
2022-09-13T03:32:21.385Z,60.47
2022-09-13T03:35:09.464Z,60.49
2022-09-13T03:37:51.373Z,60.71
2022-09-13T03:40:26.206Z,60.73
2022-09-13T03:43:03.548Z,60.83
2022-09-13T03:45:34.141Z,60.99
2022-09-13T03:48:04.282Z,61.06
2022-09-13T03:50:33.756Z,61.21
2022-09-13T03:53:07.407Z,61.66
2022-09-13T03:55:35.138Z,61.68
2022-09-13T03:58:04.535Z,61.77
2022-09-13T04:00:31.037Z,62.26
2022-09-13T04:03:00.175Z,61.80
2022-09-13T04:05:29.035Z,61.88
2022-09-13T04:07:56.150Z,61.90
2022-09-13T04:10:24.279Z,61.74
2022-09-13T04:12:52.023Z,61.80
2022-09-13T04:15:18.699Z,61.87
2022-09-13T04:17:45.431Z,62.07
2022-09-13T04:20:14.705Z,62.09
2022-09-13T04:22:42.200Z,61.96
2022-09-13T04:25:09.366Z,62.41
2022-09-13T04:27:41.137Z,62.28
2022-09-13T04:30:10.050Z,62.84
2022-09-13T04:32:41.547Z,62.24
2022-09-13T04:35:09.262Z,62.75
2022-09-13T04:37:39.166Z,62.48
2022-09-13T04:40:09.565Z,62.49
2022-09-13T04:42:36.358Z,62.56
2022-09-13T04:45:06.518Z,62.56
2022-09-13T04:47:33.214Z,62.35
2022-09-13T04:49:59.874Z,62.22
2022-09-13T04:52:26.600Z,62.08
2022-09-13T04:54:53.348Z,62.00
2022-09-13T04:57:22.857Z,62.02
2022-09-13T04:59:49.507Z,61.45
2022-09-13T05:02:21.461Z,61.42
2022-09-13T05:04:50.529Z,61.32
2022-09-13T05:07:17.605Z,61.53
2022-09-13T05:09:44.245Z,61.40
2022-09-13T05:12:13.281Z,61.57
2022-09-13T05:14:40.247Z,61.55
2022-09-13T05:17:09.682Z,61.61
2022-09-13T05:19:36.244Z,61.98
2022-09-13T05:22:03.305Z,61.37
2022-09-13T05:24:30.002Z,60.67
2022-09-13T05:26:56.700Z,60.92
2022-09-13T05:29:23.381Z,60.40
2022-09-13T05:31:52.715Z,60.46
2022-09-13T05:34:21.634Z,60.07
2022-09-13T05:36:54.164Z,60.06
2022-09-13T05:39:39.448Z,59.49
2022-09-13T05:42:09.036Z,59.80
2022-09-13T05:44:35.675Z,59.62
2022-09-13T05:47:02.430Z,59.87
2022-09-13T05:49:31.473Z,59.57
2022-09-13T05:52:00.724Z,59.58
2022-09-13T05:54:29.640Z,59.82
2022-09-13T05:57:01.162Z,59.78
2022-09-13T05:59:32.304Z,59.99
2022-09-13T06:01:59.404Z,60.13
2022-09-13T06:04:28.288Z,60.36
2022-09-13T06:06:55.103Z,60.40
2022-09-13T06:09:21.797Z,60.56
2022-09-13T06:11:48.498Z,60.30
2022-09-13T06:14:15.174Z,60.39
2022-09-13T06:16:41.837Z,60.51
2022-09-13T06:19:08.928Z,60.59
2022-09-13T06:21:38.109Z,59.99
2022-09-13T06:24:07.232Z,60.71
2022-09-13T06:26:36.363Z,60.94
2022-09-13T06:29:03.128Z,60.66
2022-09-13T06:31:34.686Z,60.65
2022-09-13T06:34:04.777Z,60.93
2022-09-13T06:36:33.981Z,60.80
2022-09-13T06:39:06.557Z,60.56
2022-09-13T06:41:38.305Z,60.25
2022-09-13T06:44:05.444Z,60.00
2022-09-13T06:46:34.511Z,59.93
2022-09-13T06:49:06.498Z,59.97
2022-09-13T06:51:34.500Z,59.44
2022-09-13T06:54:03.899Z,59.31
2022-09-13T06:56:35.331Z,59.14
2022-09-13T06:59:07.488Z,59.00
2022-09-13T07:01:35.450Z,58.88
2022-09-13T07:04:03.401Z,58.61
2022-09-13T07:06:36.665Z,58.38
2022-09-13T07:09:10.073Z,58.13
2022-09-13T07:11:38.525Z,58.14
2022-09-13T07:14:09.431Z,58.06
2022-09-13T07:16:37.744Z,58.14
2022-09-13T07:19:12.024Z,57.71
2022-09-13T07:21:41.171Z,56.97
2022-09-13T07:24:12.712Z,57.18
2022-09-13T07:26:39.866Z,56.86
2022-09-13T07:29:09.127Z,56.94
2022-09-13T07:31:37.672Z,56.88
2022-09-13T07:34:09.583Z,56.26
2022-09-13T07:36:36.748Z,54.44
2022-09-13T07:39:04.675Z,53.90
2022-09-13T07:41:32.474Z,53.19
2022-09-13T07:44:04.756Z,51.69
2022-09-13T07:46:32.849Z,50.09
2022-09-13T07:49:01.098Z,50.53
2022-09-13T07:51:32.816Z,48.81
2022-09-13T07:54:01.851Z,49.79
2022-09-13T07:56:32.776Z,48.22
2022-09-13T07:59:01.097Z,45.80
2022-09-13T08:01:28.711Z,47.78
2022-09-13T08:03:57.325Z,47.98
2022-09-13T08:06:28.090Z,47.93
2022-09-13T08:08:55.267Z,44.11
2022-09-13T08:11:33.259Z,44.28
2022-09-13T08:14:05.878Z,44.97
2022-09-13T08:16:33.497Z,45.51
2022-09-13T08:19:03.832Z,46.41
2022-09-13T08:21:40.746Z,45.79
2022-09-13T08:24:17.467Z,45.55
2022-09-13T08:26:44.860Z,45.34
2022-09-13T08:29:17.443Z,45.38
2022-09-13T08:31:44.386Z,45.09
2022-09-13T08:34:12.970Z,44.60
2022-09-13T08:36:42.462Z,44.78
2022-09-13T08:39:10.071Z,44.97
2022-09-13T08:41:47.905Z,44.02
2022-09-13T08:44:31.134Z,43.29
2022-09-13T08:47:19.682Z,43.50
2022-09-13T08:49:54.413Z,43.82
2022-09-13T08:52:28.850Z,43.90
2022-09-13T08:55:00.363Z,43.14
2022-09-13T08:57:53.684Z,43.75
2022-09-13T09:00:38.550Z,43.32
2022-09-13T09:03:17.967Z,43.14
2022-09-13T09:05:47.966Z,41.85
2022-09-13T09:08:31.337Z,42.61
2022-09-13T09:11:04.029Z,42.29
2022-09-13T09:13:51.151Z,42.40
2022-09-13T09:16:36.237Z,42.15
2022-09-13T09:19:27.439Z,42.87
2022-09-13T09:21:54.150Z,42.68
2022-09-13T09:24:25.367Z,40.95
2022-09-13T09:26:57.729Z,41.90
2022-09-13T09:29:28.939Z,42.38
2022-09-13T09:32:33.355Z,41.42
2022-09-13T09:35:17.850Z,41.04
2022-09-13T09:37:47.996Z,40.04
2022-09-13T09:40:17.258Z,41.22
2022-09-13T09:42:48.176Z,40.64
2022-09-13T09:45:33.912Z,40.22
2022-09-13T09:48:07.503Z,38.48
2022-09-13T09:50:50.206Z,39.19
2022-09-13T09:53:30.010Z,39.59
2022-09-13T09:56:15.290Z,37.71
2022-09-13T09:58:43.675Z,39.52
2022-09-13T10:01:16.602Z,39.02
2022-09-13T10:03:50.819Z,38.72
2022-09-13T10:06:25.676Z,36.79
2022-09-13T10:09:03.149Z,37.02
2022-09-13T10:12:01.544Z,36.28
2022-09-13T10:14:46.205Z,37.18
2022-09-13T10:17:21.766Z,38.52
2022-09-13T10:19:54.226Z,38.38
2022-09-13T10:22:23.603Z,37.80
2022-09-13T10:24:50.772Z,36.27
2022-09-13T10:27:23.474Z,36.17
2022-09-13T10:29:52.757Z,36.95
2022-09-13T10:32:19.851Z,37.29
2022-09-13T10:34:47.005Z,36.21
2022-09-13T10:37:24.444Z,36.94
2022-09-13T10:40:38.670Z,35.78
2022-09-13T10:43:16.122Z,35.90
2022-09-13T10:45:43.012Z,36.02
2022-09-13T10:48:13.487Z,34.65
2022-09-13T10:51:17.807Z,35.48
2022-09-13T10:53:44.556Z,35.19
2022-09-13T10:56:23.512Z,34.50
2022-09-13T10:58:50.112Z,34.25
2022-09-13T11:01:33.412Z,33.94
2022-09-13T11:04:44.222Z,34.26
2022-09-13T11:07:20.746Z,34.32
2022-09-13T11:09:52.696Z,34.39
2022-09-13T11:12:31.443Z,33.32
2022-09-13T11:15:37.108Z,33.04
2022-09-13T11:18:14.165Z,33.45
2022-09-13T11:21:04.507Z,33.53
2022-09-13T11:23:49.883Z,34.67
2022-09-13T11:26:46.737Z,33.78
2022-09-13T11:29:26.207Z,33.92
2022-09-13T11:32:18.515Z,33.23
2022-09-13T11:35:06.392Z,31.71
2022-09-13T11:37:33.028Z,32.82
2022-09-13T11:40:16.424Z,33.06
2022-09-13T11:42:58.831Z,33.48
2022-09-13T11:45:38.506Z,33.38
2022-09-13T11:48:30.608Z,31.85
2022-09-13T11:51:21.739Z,32.52
2022-09-13T11:54:12.846Z,30.68
2022-09-13T11:56:43.246Z,30.86
2022-09-13T11:59:40.065Z,30.66
2022-09-13T12:02:34.527Z,29.49
2022-09-13T12:05:22.543Z,30.55
2022-09-13T12:07:54.194Z,30.41
2022-09-13T12:10:47.280Z,29.66
2022-09-13T12:13:22.832Z,31.11
2022-09-13T12:15:53.215Z,30.54
2022-09-13T12:18:26.153Z,28.67
2022-09-13T12:20:56.200Z,28.10
2022-09-13T12:23:29.291Z,27.92
2022-09-13T12:26:18.430Z,29.47
2022-09-13T12:28:49.734Z,29.53
2022-09-13T12:31:21.752Z,28.72
2022-09-13T12:33:49.161Z,29.23
2022-09-13T12:36:22.011Z,29.73
2022-09-13T12:39:19.570Z,28.47
2022-09-13T12:42:10.557Z,28.66
2022-09-13T12:45:17.887Z,29.13
2022-09-13T12:47:56.458Z,29.63
2022-09-13T12:50:51.384Z,30.37
2022-09-13T12:53:33.091Z,29.79
2022-09-13T12:56:24.262Z,30.95
2022-09-13T12:59:30.408Z,31.10
2022-09-13T13:01:58.419Z,30.73
2022-09-13T13:04:33.493Z,29.22
2022-09-13T13:07:03.889Z,28.43
2022-09-13T13:09:36.874Z,28.48
2022-09-13T13:12:06.449Z,28.69
2022-09-13T13:14:41.475Z,27.56
2022-09-13T13:17:38.159Z,25.81
2022-09-13T13:20:42.479Z,26.04
2022-09-13T13:23:24.166Z,24.12
2022-09-13T13:26:46.145Z,25.39
2022-09-13T13:29:17.977Z,22.94
2022-09-13T13:31:53.310Z,24.75
2022-09-13T13:34:22.961Z,24.45
2022-09-13T13:37:22.776Z,24.25
2022-09-13T13:40:10.233Z,26.62
2022-09-13T13:42:39.985Z,25.85
2022-09-13T13:45:20.865Z,26.25
2022-09-13T13:48:24.943Z,24.77
2022-09-13T13:51:26.114Z,25.88
2022-09-13T13:54:05.860Z,25.90
2022-09-13T13:56:47.135Z,25.09
2022-09-13T13:59:31.057Z,25.62
2022-09-13T14:02:01.995Z,26.28
2022-09-13T14:04:37.960Z,24.38
2022-09-13T14:07:36.804Z,23.52
2022-09-13T14:10:12.318Z,24.28
2022-09-13T14:13:07.835Z,24.16
2022-09-13T14:15:37.462Z,24.97
2022-09-13T14:18:07.146Z,22.90
2022-09-13T14:20:36.142Z,24.04
2022-09-13T14:23:19.715Z,22.47
2022-09-13T14:25:54.877Z,22.11
2022-09-13T14:28:22.570Z,20.80
2022-09-13T14:30:53.779Z,21.71
2022-09-13T14:33:32.450Z,23.22
2022-09-13T14:36:27.943Z,23.25
2022-09-13T14:38:58.772Z,25.07
2022-09-13T14:41:37.633Z,24.86
2022-09-13T14:44:28.784Z,24.29
2022-09-13T14:47:15.067Z,22.38
2022-09-13T14:49:48.908Z,21.69
2022-09-13T14:52:39.516Z,22.22
2022-09-13T14:55:09.887Z,22.40
2022-09-13T14:57:41.953Z,23.07
2022-09-13T15:00:14.752Z,22.87
2022-09-13T15:02:46.898Z,22.60
2022-09-13T15:05:15.634Z,23.29
2022-09-13T15:07:44.852Z,22.97
2022-09-13T15:10:17.659Z,23.34
2022-09-13T15:13:10.861Z,23.74
2022-09-13T15:15:48.044Z,24.30
2022-09-13T15:18:17.811Z,25.15
2022-09-13T15:20:53.720Z,25.48
2022-09-13T15:23:43.563Z,24.57
2022-09-13T15:26:23.489Z,26.02
2022-09-13T15:28:51.519Z,27.70
2022-09-13T15:31:22.636Z,28.85
2022-09-13T15:33:49.908Z,28.48
2022-09-13T15:36:19.651Z,28.84
2022-09-13T15:39:01.207Z,29.74
2022-09-13T15:41:34.756Z,30.20
2022-09-13T15:44:05.227Z,29.90
2022-09-13T15:46:55.489Z,30.04
2022-09-13T15:49:26.560Z,30.89
2022-09-13T15:52:12.599Z,30.36
2022-09-13T15:54:41.882Z,31.58
2022-09-13T15:57:24.046Z,31.84
2022-09-13T15:59:50.942Z,31.89
2022-09-13T16:02:23.859Z,31.86
2022-09-13T16:04:50.629Z,32.25
2022-09-13T16:07:18.431Z,32.75
2022-09-13T16:09:45.837Z,32.58
2022-09-13T16:12:18.878Z,32.47
2022-09-13T16:14:50.364Z,32.47
2022-09-13T16:17:27.028Z,33.08
2022-09-13T16:19:55.950Z,32.56
2022-09-13T16:22:25.336Z,33.81
2022-09-13T16:24:54.292Z,32.81
2022-09-13T16:27:21.137Z,33.14
2022-09-13T16:29:48.262Z,33.24
2022-09-13T16:32:15.601Z,33.31
2022-09-13T16:34:42.280Z,33.77
2022-09-13T16:37:14.022Z,33.81
2022-09-13T16:39:40.788Z,33.94
2022-09-13T16:42:09.727Z,33.62
2022-09-13T16:44:36.334Z,34.76
2022-09-13T16:47:05.249Z,34.49
2022-09-13T16:49:32.053Z,35.36
2022-09-13T16:52:02.070Z,35.03
2022-09-13T16:54:31.129Z,34.90
2022-09-13T16:56:58.757Z,34.95
2022-09-13T16:59:25.892Z,35.15
2022-09-13T17:01:52.912Z,35.50
2022-09-13T17:04:27.181Z,35.82
2022-09-13T17:06:53.916Z,36.36
2022-09-13T17:09:22.450Z,36.01
2022-09-13T17:11:53.856Z,36.17
2022-09-13T17:14:22.792Z,36.08
2022-09-13T17:16:53.693Z,37.13
2022-09-13T17:19:34.130Z,36.86
2022-09-13T17:22:02.685Z,36.98
2022-09-13T17:24:31.935Z,37.63
2022-09-13T17:26:59.103Z,37.11
2022-09-13T17:29:31.012Z,37.39
2022-09-13T17:31:59.043Z,37.56
2022-09-13T17:34:28.400Z,37.82
2022-09-13T17:36:57.848Z,37.79
2022-09-13T17:39:29.614Z,37.98
2022-09-13T17:41:56.401Z,38.18
2022-09-13T17:44:25.282Z,38.35
2022-09-13T17:46:56.959Z,38.43
2022-09-13T17:49:24.114Z,39.34
2022-09-13T17:51:50.819Z,39.18
2022-09-13T17:54:19.711Z,39.27
2022-09-13T17:56:46.811Z,39.33
2022-09-13T17:59:15.586Z,39.46
2022-09-13T18:01:48.502Z,39.45
2022-09-13T18:04:22.237Z,39.43
2022-09-13T18:06:51.068Z,39.61
2022-09-13T18:09:20.056Z,39.58
2022-09-13T18:11:46.715Z,40.23
2022-09-13T18:14:20.309Z,39.60
2022-09-13T18:16:55.569Z,39.54
2022-09-13T18:19:44.294Z,39.71
2022-09-13T18:22:14.860Z,39.84
2022-09-13T18:24:44.294Z,39.87
2022-09-13T18:27:10.967Z,39.89
2022-09-13T18:29:40.156Z,40.17
2022-09-13T18:32:07.030Z,39.98
2022-09-13T18:34:33.732Z,40.16
2022-09-13T18:37:03.075Z,40.29
2022-09-13T18:39:29.856Z,40.24
2022-09-13T18:42:01.075Z,40.20
2022-09-13T18:44:30.642Z,40.60
2022-09-13T18:46:58.166Z,41.51
2022-09-13T18:49:24.871Z,41.23
2022-09-13T18:51:51.618Z,41.02
2022-09-13T18:54:18.704Z,41.04
2022-09-13T18:56:48.607Z,41.51
2022-09-13T18:59:15.554Z,41.64
2022-09-13T19:01:45.432Z,41.48
2022-09-13T19:04:20.004Z,41.57
2022-09-13T19:06:52.076Z,41.60
2022-09-13T19:09:20.963Z,41.55
2022-09-13T19:11:51.720Z,41.76
2022-09-13T19:14:22.932Z,41.67
2022-09-13T19:16:53.595Z,41.98
2022-09-13T19:19:20.841Z,41.79
2022-09-13T19:21:49.873Z,41.95
2022-09-13T19:24:19.476Z,42.18
2022-09-13T19:26:51.189Z,42.28
2022-09-13T19:29:21.870Z,42.66
2022-09-13T19:31:49.456Z,42.31
2022-09-13T19:34:18.165Z,42.63
2022-09-13T19:36:45.533Z,43.61
2022-09-13T19:39:12.679Z,42.98
2022-09-13T19:41:40.251Z,43.10
2022-09-13T19:44:13.750Z,42.92
2022-09-13T19:46:43.896Z,43.40
2022-09-13T19:49:15.865Z,43.35
2022-09-13T19:51:49.984Z,43.40
2022-09-13T19:54:21.370Z,43.34
2022-09-13T19:56:48.479Z,43.85
2022-09-13T19:59:17.137Z,43.81
2022-09-13T20:01:47.276Z,43.49
2022-09-13T20:04:16.821Z,43.45
2022-09-13T20:06:45.864Z,43.27
2022-09-13T20:09:13.925Z,43.46
2022-09-13T20:11:45.342Z,43.83
2022-09-13T20:14:13.637Z,43.93
2022-09-13T20:16:41.333Z,43.48
2022-09-13T20:19:29.600Z,43.95
2022-09-13T20:21:55.529Z,44.25
2022-09-13T20:24:22.247Z,44.31
2022-09-13T20:26:52.270Z,44.30
2022-09-13T20:29:21.516Z,44.37
2022-09-13T20:31:48.177Z,44.37
2022-09-13T20:34:15.263Z,44.67
2022-09-13T20:36:44.308Z,44.26
2022-09-13T20:39:15.135Z,44.24
2022-09-13T20:41:43.309Z,44.35
2022-09-13T20:44:10.821Z,44.29
2022-09-13T20:46:40.579Z,44.27
2022-09-13T20:49:09.169Z,44.38
2022-09-13T20:51:38.685Z,44.67
2022-09-13T20:54:07.771Z,44.47
2022-09-13T20:56:36.821Z,44.70
2022-09-13T20:59:06.746Z,44.27
2022-09-13T21:01:33.923Z,44.40
2022-09-13T21:04:01.306Z,44.64
2022-09-13T21:06:29.721Z,44.47
2022-09-13T21:09:01.886Z,44.50
2022-09-13T21:11:35.129Z,44.83
2022-09-13T21:14:07.253Z,45.16
2022-09-13T21:16:39.803Z,45.14
2022-09-13T21:19:07.463Z,45.37
2022-09-13T21:21:40.305Z,45.71
2022-09-13T21:24:11.001Z,45.96
2022-09-13T21:26:42.642Z,46.25
2022-09-13T21:29:12.871Z,46.18
2022-09-13T21:31:40.246Z,45.58
2022-09-13T21:34:17.821Z,46.09
2022-09-13T21:36:45.603Z,46.27
2022-09-13T21:39:13.373Z,46.02
2022-09-13T21:41:43.044Z,45.98
2022-09-13T21:44:12.224Z,45.53
2022-09-13T21:46:39.984Z,45.79
2022-09-13T21:49:10.255Z,46.15
2022-09-13T21:51:41.893Z,45.53
2022-09-13T21:54:11.158Z,45.71
2022-09-13T21:56:42.397Z,45.62
2022-09-13T21:59:16.861Z,45.66
2022-09-13T22:01:46.973Z,45.77
2022-09-13T22:04:17.410Z,45.60
2022-09-13T22:06:47.939Z,45.62
2022-09-13T22:09:15.371Z,45.87
2022-09-13T22:11:49.523Z,45.88
2022-09-13T22:14:21.623Z,45.88
2022-09-13T22:16:48.505Z,46.03
2022-09-13T22:19:26.552Z,46.32
2022-09-13T22:21:59.227Z,46.85
2022-09-13T22:24:31.805Z,46.39
2022-09-13T22:26:59.165Z,46.76
2022-09-13T22:29:28.809Z,46.72
2022-09-13T22:31:58.484Z,46.78
2022-09-13T22:34:26.163Z,46.65
2022-09-13T22:36:56.014Z,46.79
2022-09-13T22:39:25.778Z,46.86
2022-09-13T22:41:52.644Z,46.87
2022-09-13T22:44:24.056Z,47.69
2022-09-13T22:46:51.182Z,47.59
2022-09-13T22:49:19.397Z,48.45
2022-09-13T22:51:47.622Z,47.97
2022-09-13T22:54:15.442Z,47.97
2022-09-13T22:56:42.560Z,48.13
2022-09-13T22:59:14.725Z,48.49
2022-09-13T23:01:41.683Z,48.82
2022-09-13T23:04:10.726Z,48.89
2022-09-13T23:06:37.549Z,48.84
2022-09-13T23:09:10.662Z,49.37
2022-09-13T23:11:39.132Z,49.44
2022-09-13T23:14:11.444Z,49.79
2022-09-13T23:16:44.122Z,49.89
2022-09-13T23:19:12.982Z,50.15
2022-09-13T23:21:40.317Z,50.14
2022-09-13T23:24:08.251Z,50.17
2022-09-13T23:26:35.222Z,52.00
2022-09-13T23:29:04.835Z,51.50
2022-09-13T23:31:34.755Z,53.20
2022-09-13T23:34:03.511Z,51.77
2022-09-13T23:36:35.842Z,52.04
2022-09-13T23:39:07.971Z,52.47
2022-09-13T23:41:35.157Z,52.67
2022-09-13T23:44:02.596Z,52.76
2022-09-13T23:46:29.577Z,53.21
2022-09-13T23:48:56.315Z,53.02
2022-09-13T23:51:24.352Z,53.08
2022-09-13T23:53:52.509Z,52.72
2022-09-13T23:56:19.480Z,52.45
2022-09-13T23:58:47.189Z,53.33
